Time;durP1;ratioP1;P1;durP2;ratioP2;P2;SDS_P1;SDS_P2;PMS_P1;PMS_P2;Temp;Humidity;BMP_temperature;BMP_pressure;BME280_temperature;BME280_humidity;BME280_pressure;Samples;Min_cycle;Max_cycle;Signal;HPM_P1;HPM_P2
2022/12/04 00:02:11;;;;;;;27.25;11.75;;;;;;;3.24;100.00;99838.44;5028000;28;20041;-70
2022/12/04 00:04:36;;;;;;;20.77;9.80;;;;;;;3.25;100.00;99821.78;5034584;28;20056;-69
2022/12/04 00:07:02;;;;;;;24.92;9.70;;;;;;;3.29;100.00;99814.75;5029772;28;20481;-69
2022/12/04 00:09:27;;;;;;;22.45;10.63;;;;;;;3.32;100.00;99812.97;5014428;28;20112;-69
2022/12/04 00:11:52;;;;;;;26.25;10.90;;;;;;;3.35;100.00;99814.69;5030593;28;20033;-69
2022/12/04 00:14:18;;;;;;;20.00;10.13;;;;;;;3.38;100.00;99804.16;5025591;28;20087;-69
2022/12/04 00:16:43;;;;;;;22.38;9.38;;;;;;;3.36;100.00;99798.06;5023826;28;20084;-68
2022/12/04 00:19:09;;;;;;;23.75;10.00;;;;;;;3.35;100.00;99801.56;5014953;28;20022;-69
2022/12/04 00:21:34;;;;;;;22.27;10.35;;;;;;;3.39;100.00;99798.94;5015381;28;20057;-69
2022/12/04 00:24:01;;;;;;;24.90;9.50;;;;;;;3.41;100.00;99806.78;5015102;28;20059;-69
2022/12/04 00:26:27;;;;;;;24.88;10.30;;;;;;;3.42;100.00;99809.41;5016775;28;20026;-69
2022/12/04 00:28:53;;;;;;;23.45;10.82;;;;;;;3.45;100.00;99811.13;5016690;28;20037;-69
2022/12/04 00:31:21;;;;;;;26.55;11.27;;;;;;;3.47;100.00;99809.38;5014166;28;20029;-69
2022/12/04 00:33:46;;;;;;;24.88;11.25;;;;;;;3.52;100.00;99802.31;5023992;28;20437;-69
2022/12/04 00:36:15;;;;;;;25.67;11.65;;;;;;;3.51;100.00;99803.22;5030396;28;20056;-69
2022/12/04 00:38:41;;;;;;;26.90;11.02;;;;;;;3.57;100.00;99800.53;5013873;28;20036;-72
2022/12/04 00:41:16;;;;;;;26.13;11.82;;;;;;;3.58;100.00;99789.09;5014437;28;20030;-69
2022/12/04 00:43:41;;;;;;;30.65;12.82;;;;;;;3.70;100.00;99802.16;5031246;28;20021;-71
2022/12/04 00:46:08;;;;;;;27.13;10.52;;;;;;;3.74;100.00;99796.00;5033993;28;20477;-72
2022/12/04 00:48:33;;;;;;;26.70;12.70;;;;;;;3.65;100.00;99791.69;5024108;28;20037;-72
2022/12/04 00:51:04;;;;;;;25.25;12.43;;;;;;;3.70;100.00;99799.53;5028581;28;20028;-72
2022/12/04 00:53:29;;;;;;;25.02;11.60;;;;;;;3.65;100.00;99798.69;5031350;28;20025;-72
2022/12/04 00:55:55;;;;;;;27.13;12.07;;;;;;;3.71;100.00;99802.16;5015047;28;20030;-72
2022/12/04 00:58:20;;;;;;;24.75;12.82;;;;;;;3.69;100.00;99808.31;5014693;28;20117;-72
2022/12/04 01:00:46;;;;;;;26.80;10.98;;;;;;;3.61;100.00;99803.09;5023840;28;20115;-73
2022/12/04 01:03:11;;;;;;;26.98;11.98;;;;;;;3.69;100.00;99813.59;5025488;28;20431;-72
2022/12/04 01:05:42;;;;;;;25.35;12.40;;;;;;;3.63;100.00;99816.25;5031657;28;20440;-72
2022/12/04 01:08:09;;;;;;;21.10;10.98;;;;;;;3.59;100.00;99822.44;5013786;28;20038;-72
2022/12/04 01:10:40;;;;;;;19.02;10.63;;;;;;;3.48;100.00;99811.97;5014089;28;20509;-72
2022/12/04 01:13:05;;;;;;;19.23;11.13;;;;;;;3.37;100.00;99789.28;5012497;28;20109;-72
2022/12/04 01:15:31;;;;;;;23.35;11.88;;;;;;;3.41;100.00;99797.13;5017182;28;20136;-72
2022/12/04 01:17:56;;;;;;;23.92;11.77;;;;;;;3.47;100.00;99802.38;5029931;28;20029;-72
2022/12/04 01:20:22;;;;;;;22.23;10.18;;;;;;;3.39;100.00;99784.91;5038189;28;20029;-73
2022/12/04 01:22:47;;;;;;;23.10;10.77;;;;;;;3.52;100.00;99805.84;5020136;28;20024;-73
2022/12/04 01:25:12;;;;;;;18.88;11.20;;;;;;;3.49;100.00;99804.97;5014213;28;20026;-73
2022/12/04 01:27:38;;;;;;;26.50;10.45;;;;;;;3.52;100.00;99802.31;5016588;28;20036;-73
2022/12/04 01:30:04;;;;;;;23.30;10.68;;;;;;;3.56;100.00;99807.53;5013132;28;20121;-73
2022/12/04 01:32:30;;;;;;;25.17;12.02;;;;;;;3.40;100.00;99781.38;5015217;28;20034;-73
2022/12/04 01:34:56;;;;;;;24.20;12.23;;;;;;;3.56;100.00;99806.66;5015037;28;20092;-73
2022/12/04 01:37:22;;;;;;;28.20;12.05;;;;;;;3.57;100.00;99804.03;5013922;28;20493;-73
2022/12/04 01:39:48;;;;;;;27.38;11.23;;;;;;;3.64;100.00;99808.34;5014534;28;20049;-73
2022/12/04 01:42:14;;;;;;;27.40;10.68;;;;;;;3.64;100.00;99812.75;5017493;28;20065;-73
2022/12/04 01:45:04;;;;;;;25.83;12.38;;;;;;;3.68;100.00;99806.56;5032209;28;20029;-73
2022/12/04 01:47:29;;;;;;;25.17;13.43;;;;;;;3.71;100.00;99811.78;5034925;28;20028;-73
2022/12/04 01:49:56;;;;;;;28.33;13.30;;;;;;;3.72;100.00;99810.91;5034391;28;20478;-73
2022/12/04 01:52:25;;;;;;;23.65;11.27;;;;;;;3.66;100.00;99789.91;5036961;28;20551;-73
2022/12/04 01:54:57;;;;;;;25.23;11.27;;;;;;;3.72;100.00;99809.13;5014583;28;20026;-72
2022/12/04 01:57:26;;;;;;;26.27;12.77;;;;;;;3.70;100.00;99799.53;5033073;28;20455;-73
2022/12/04 01:59:57;;;;;;;23.95;11.10;;;;;;;3.67;100.00;99779.38;5033587;28;20083;-73
2022/12/04 02:02:29;;;;;;;25.95;12.70;;;;;;;3.78;100.00;99803.84;5017124;28;20022;-70
2022/12/04 02:04:55;;;;;;;25.00;13.27;;;;;;;3.74;100.00;99791.59;5030246;28;20092;-70
2022/12/04 02:07:21;;;;;;;23.33;10.98;;;;;;;3.76;100.00;99799.47;5029995;28;20029;-70
2022/12/04 02:09:52;;;;;;;22.02;10.10;;;;;;;3.67;100.00;99781.16;5031000;28;20531;-71
2022/12/04 02:12:56;;;;;;;20.27;10.27;;;;;;;3.80;100.00;99807.34;5013887;28;20040;-70
2022/12/04 02:15:47;;;;;;;20.98;11.20;;;;;;;3.84;100.00;99813.41;5004872;28;20042;-70
2022/12/04 02:18:23;;;;;;;20.13;10.20;;;;;;;3.67;100.00;99784.63;5009744;28;20095;-70
2022/12/04 02:20:53;;;;;;;22.85;10.32;;;;;;;3.86;100.00;99816.91;5012425;28;20030;-70
2022/12/04 02:23:46;;;;;;;21.70;12.70;;;;;;;3.85;100.00;99809.94;5010386;28;20028;-70
2022/12/04 02:26:26;;;;;;;20.87;10.87;;;;;;;3.88;100.00;99809.88;5009079;28;20075;-70
2022/12/04 02:29:03;;;;;;;21.17;10.30;;;;;;;3.88;100.00;99804.63;5014844;28;20030;-70
2022/12/04 02:31:57;;;;;;;25.70;10.88;;;;;;;3.91;100.00;99796.69;5010245;28;20025;-70
2022/12/04 02:34:29;;;;;;;16.70;10.13;;;;;;;3.88;100.00;99800.25;5023375;28;20038;-70
2022/12/04 02:37:01;;;;;;;19.17;10.03;;;;;;;3.97;100.00;99804.53;5029703;28;20260;-70
2022/12/04 02:39:34;;;;;;;20.48;10.63;;;;;;;3.92;100.00;99790.56;5029662;28;20030;-70
2022/12/04 02:42:37;;;;;;;21.35;10.20;;;;;;;3.93;100.00;99794.94;5026606;28;20481;-70
2022/12/04 02:45:10;;;;;;;21.67;10.50;;;;;;;3.94;100.00;99800.19;5011067;28;20037;-71
2022/12/04 02:47:39;;;;;;;25.60;11.55;;;;;;;3.93;100.00;99787.94;5011156;28;20391;-71
2022/12/04 02:50:11;;;;;;;27.52;12.30;;;;;;;3.85;100.00;99775.72;5011035;28;20041;-71
2022/12/04 02:53:02;;;;;;;19.88;11.93;;;;;;;4.00;100.00;99804.53;5022656;28;20033;-71
2022/12/04 02:55:37;;;;;;;21.92;10.25;;;;;;;4.03;100.00;99794.84;5029055;28;20021;-71
2022/12/04 02:58:13;;;;;;;21.27;9.52;;;;;;;4.05;100.00;99790.41;5027054;28;20043;-71
2022/12/04 03:00:41;;;;;;;19.77;9.70;;;;;;;4.02;100.00;99782.56;5030687;28;20030;-71
2022/12/04 03:03:17;;;;;;;24.40;10.30;;;;;;;4.03;100.00;99780.81;5030141;28;20036;-71
2022/12/04 03:05:59;;;;;;;23.55;10.60;;;;;;;4.04;100.00;99772.91;5028550;28;20036;-71
2022/12/04 03:08:36;;;;;;;21.15;9.30;;;;;;;4.07;100.00;99766.72;5010902;28;20034;-71
2022/12/04 03:11:02;;;;;;;22.02;10.85;;;;;;;4.03;100.00;99768.53;5011002;28;20131;-71
2022/12/04 03:13:38;;;;;;;19.80;9.70;;;;;;;4.10;100.00;99769.34;5013191;28;20076;-71
2022/12/04 03:16:16;;;;;;;23.05;10.75;;;;;;;4.15;100.00;99775.44;5014659;28;20037;-71
2022/12/04 03:18:55;;;;;;;20.45;10.30;;;;;;;4.02;100.00;99750.09;5018824;28;20026;-71
2022/12/04 03:21:25;;;;;;;26.00;10.85;;;;;;;4.16;100.00;99769.25;5029533;28;20033;-71
2022/12/04 03:24:15;;;;;;;25.02;10.77;;;;;;;4.16;100.00;99753.47;5016826;28;20090;-71
2022/12/04 03:26:51;;;;;;;20.38;9.73;;;;;;;4.26;100.00;99775.28;5014568;28;20057;-70
2022/12/04 03:29:26;;;;;;;22.55;9.68;;;;;;;4.26;100.00;99777.91;5014431;28;20037;-71
2022/12/04 03:32:04;;;;;;;27.85;11.80;;;;;;;4.29;100.00;99770.88;5016674;28;20069;-71
2022/12/04 03:34:53;;;;;;;24.48;9.82;;;;;;;4.30;100.00;99772.59;5029875;28;20079;-71
2022/12/04 03:37:30;;;;;;;23.83;10.80;;;;;;;4.33;100.00;99767.31;5031701;28;20041;-71
2022/12/04 03:40:09;;;;;;;23.90;9.73;;;;;;;4.32;100.00;99760.28;5032893;28;20397;-71
2022/12/04 03:42:44;;;;;;;24.60;9.85;;;;;;;4.28;100.00;99755.97;5032259;28;20017;-71
2022/12/04 03:45:22;;;;;;;24.05;9.43;;;;;;;4.40;100.00;99752.31;5027790;28;20051;-71
2022/12/04 03:48:22;;;;;;;20.85;10.65;;;;;;;4.52;100.00;99752.16;5033841;28;20029;-71
2022/12/04 03:50:59;;;;;;;24.10;9.95;;;;;;;4.54;100.00;99738.09;5021350;28;20041;-72
2022/12/04 03:53:32;;;;;;;29.20;11.07;;;;;;;4.50;100.00;99727.63;5033674;28;20025;-71
2022/12/04 03:56:02;;;;;;;23.95;9.48;;;;;;;4.59;100.00;99748.56;5029295;28;20120;-72
2022/12/04 03:58:31;;;;;;;26.75;9.65;;;;;;;4.59;100.00;99748.56;5033634;28;20037;-72
2022/12/04 04:01:00;;;;;;;22.60;9.73;;;;;;;4.60;100.00;99755.53;5020831;28;20034;-71
2022/12/04 04:03:34;;;;;;;22.17;10.05;;;;;;;4.66;100.00;99756.34;5020652;28;20133;-70
2022/12/04 04:06:15;;;;;;;26.08;9.98;;;;;;;4.64;100.00;99746.72;5031061;28;20115;-70
2022/12/04 04:08:44;;;;;;;32.55;11.80;;;;;;;4.64;100.00;99752.88;5033477;28;20409;-71
2022/12/04 04:11:18;;;;;;;23.67;10.25;;;;;;;4.69;100.00;99760.72;5032323;28;20033;-70
2022/12/04 04:25:03;;;;;;;24.83;10.50;;;;;;;4.77;100.00;99759.72;5019945;28;20596;-71
2022/12/04 04:27:28;;;;;;;24.48;9.75;;;;;;;4.74;100.00;99765.03;5013070;28;20030;-71
2022/12/04 04:29:54;;;;;;;25.77;11.13;;;;;;;4.75;100.00;99758.88;5015460;28;20080;-71
2022/12/04 04:32:48;;;;;;;29.92;12.10;;;;;;;4.80;100.00;99771.97;5013091;28;20474;-71
2022/12/04 04:35:13;;;;;;;28.65;12.95;;;;;;;4.80;100.00;99761.44;5013023;28;20044;-71
2022/12/04 04:37:50;;;;;;;28.85;12.48;;;;;;;4.80;100.00;99774.59;5018416;28;20030;-70
2022/12/04 04:40:37;;;;;;;24.77;10.32;;;;;;;4.83;100.00;99766.66;5013103;28;20044;-71
2022/12/04 04:43:06;;;;;;;21.85;10.65;;;;;;;4.74;100.00;99759.78;5013016;28;20022;-71
2022/12/04 04:45:41;;;;;;;26.65;10.20;;;;;;;4.86;100.00;99770.13;5030107;28;20052;-71
2022/12/04 04:48:19;;;;;;;28.30;10.70;;;;;;;4.87;100.00;99777.16;5032693;28;20167;-71
2022/12/04 04:50:45;;;;;;;19.30;9.45;;;;;;;4.83;100.00;99778.06;5021552;28;20060;-71
2022/12/04 04:53:45;;;;;;;24.15;9.20;;;;;;;4.86;100.00;99785.09;5012871;28;20760;-71
2022/12/04 04:56:11;;;;;;;21.27;10.10;;;;;;;4.82;100.00;99784.25;5018630;28;20033;-71
2022/12/04 04:58:37;;;;;;;23.60;10.90;;;;;;;4.73;100.00;99779.09;5031269;28;20040;-71
2022/12/04 05:01:06;;;;;;;27.75;10.80;;;;;;;4.82;100.00;99793.91;5027366;28;20065;-71
2022/12/04 05:03:32;;;;;;;23.63;9.55;;;;;;;4.80;100.00;99786.03;5028324;28;20056;-71
2022/12/04 05:05:58;;;;;;;22.63;10.98;;;;;;;4.79;100.00;99778.16;5032260;28;20037;-71
2022/12/04 05:08:23;;;;;;;20.98;8.75;;;;;;;4.89;100.00;99799.06;5023973;28;20030;-71
2022/12/04 05:10:49;;;;;;;21.50;8.70;;;;;;;4.87;100.00;99790.34;5011139;28;20415;-71
2022/12/04 05:13:16;;;;;;;18.85;9.00;;;;;;;4.94;100.00;99794.59;5012617;28;20469;-71
2022/12/04 05:15:42;;;;;;;19.58;9.25;;;;;;;4.96;100.00;99792.81;5014681;28;20086;-71
2022/12/04 05:18:08;;;;;;;22.00;9.30;;;;;;;4.87;100.00;99785.06;5012596;28;20034;-71
2022/12/04 05:20:37;;;;;;;21.80;8.85;;;;;;;4.88;100.00;99788.53;5014430;28;20029;-71
2022/12/04 05:23:03;;;;;;;24.80;10.38;;;;;;;4.91;100.00;99794.66;5016178;28;20112;-71
2022/12/04 05:25:28;;;;;;;22.52;8.05;;;;;;;4.80;100.00;99764.94;5029244;28;20497;-71
2022/12/04 05:27:54;;;;;;;25.10;10.18;;;;;;;4.95;100.00;99788.47;5014095;28;20060;-71
2022/12/04 05:30:19;;;;;;;23.50;8.45;;;;;;;4.95;100.00;99791.09;5012157;28;20079;-71
2022/12/04 05:32:45;;;;;;;19.75;8.95;;;;;;;4.83;100.00;99767.53;5015741;28;20033;-71
2022/12/04 05:35:10;;;;;;;19.20;8.75;;;;;;;4.93;100.00;99784.97;5031930;28;20025;-71
2022/12/04 05:37:37;;;;;;;25.25;8.35;;;;;;;4.95;100.00;99782.31;5029556;28;20029;-71
2022/12/04 05:40:04;;;;;;;21.08;9.18;;;;;;;4.92;100.00;99785.00;5014612;28;20022;-71
2022/12/04 05:42:29;;;;;;;22.13;8.88;;;;;;;4.96;100.00;99790.19;5012021;28;20026;-71
2022/12/04 05:44:55;;;;;;;20.63;7.75;;;;;;;4.96;100.00;99777.00;5014993;28;20042;-71
2022/12/04 05:47:20;;;;;;;19.45;9.15;;;;;;;5.00;100.00;99784.00;5011724;28;20022;-71
2022/12/04 05:49:46;;;;;;;24.00;9.32;;;;;;;4.99;100.00;99782.22;5012785;28;20160;-71
2022/12/04 05:52:11;;;;;;;29.40;10.60;;;;;;;5.00;100.00;99788.38;5030229;28;20037;-71
2022/12/04 05:54:37;;;;;;;30.30;9.35;;;;;;;4.90;100.00;99777.09;5030340;28;20116;-71
2022/12/04 05:57:02;;;;;;;21.20;8.93;;;;;;;4.97;100.00;99789.31;5017718;28;20037;-70
2022/12/04 05:59:28;;;;;;;22.83;9.88;;;;;;;4.98;100.00;99780.50;5028151;28;20033;-71
2022/12/04 06:01:53;;;;;;;19.05;8.10;;;;;;;5.01;100.00;99780.44;5028416;28;20436;-71
2022/12/04 06:04:19;;;;;;;20.35;8.77;;;;;;;5.06;100.00;99783.00;5028198;28;20045;-71
2022/12/04 06:06:44;;;;;;;24.73;9.60;;;;;;;5.06;100.00;99773.34;5031183;28;20041;-71
2022/12/04 06:09:10;;;;;;;18.67;8.90;;;;;;;5.09;100.00;99783.84;5031384;28;20362;-71
2022/12/04 06:11:38;;;;;;;18.50;7.55;;;;;;;5.05;100.00;99770.75;5028073;28;20050;-71
2022/12/04 06:14:06;;;;;;;18.63;9.73;;;;;;;5.11;100.00;99776.78;5030492;28;20048;-71
2022/12/04 06:16:41;;;;;;;21.48;8.35;;;;;;;5.08;100.00;99771.56;5029641;28;20123;-71
2022/12/04 06:19:10;;;;;;;26.02;9.82;;;;;;;5.01;100.00;99775.19;5016900;28;20486;-71
2022/12/04 06:21:38;;;;;;;25.80;9.73;;;;;;;5.04;100.00;99775.13;5011389;28;20466;-71
2022/12/04 06:24:04;;;;;;;20.77;8.98;;;;;;;5.08;100.00;99775.97;5013718;28;20079;-71
2022/12/04 06:26:29;;;;;;;17.38;7.38;;;;;;;5.08;100.00;99787.38;5011428;28;20060;-71
2022/12/04 06:28:57;;;;;;;19.63;9.13;;;;;;;4.98;100.00;99769.97;5025969;28;20393;-71
2022/12/04 06:31:24;;;;;;;20.80;9.13;;;;;;;5.12;100.00;99781.16;5023036;28;20612;-71
2022/12/04 06:33:51;;;;;;;25.42;9.35;;;;;;;5.02;100.00;99782.22;5042224;28;20025;-71
2022/12/04 06:36:18;;;;;;;18.33;7.75;;;;;;;5.07;100.00;99788.25;5022821;28;20501;-71
2022/12/04 06:38:44;;;;;;;22.70;8.20;;;;;;;5.05;100.00;99792.72;5010409;28;20386;-71
2022/12/04 06:41:12;;;;;;;22.00;8.30;;;;;;;5.00;100.00;99789.25;5010069;28;20026;-71
2022/12/04 06:43:38;;;;;;;21.75;8.93;;;;;;;5.01;100.00;99784.84;5012703;28;20393;-71
2022/12/04 06:46:15;;;;;;;18.73;7.97;;;;;;;5.10;100.00;99795.28;5011145;28;20026;-71
2022/12/04 06:48:41;;;;;;;19.98;8.93;;;;;;;5.05;100.00;99786.56;5012593;28;20029;-71
2022/12/04 06:51:10;;;;;;;25.35;9.23;;;;;;;5.07;100.00;99798.81;5013927;28;20378;-71
2022/12/04 06:53:36;;;;;;;22.45;8.65;;;;;;;5.06;100.00;99788.28;5015525;28;20026;-71
2022/12/04 06:56:08;;;;;;;23.73;9.05;;;;;;;5.09;100.00;99793.53;5033770;28;20049;-71
2022/12/04 06:58:33;;;;;;;24.25;8.85;;;;;;;5.10;100.00;99798.78;5017557;28;20493;-71
2022/12/04 07:01:05;;;;;;;21.92;9.07;;;;;;;5.10;100.00;99796.16;5015162;28;20033;-71
2022/12/04 07:03:30;;;;;;;19.95;8.55;;;;;;;5.00;100.00;99788.38;5023065;28;20037;-71
2022/12/04 07:05:56;;;;;;;17.20;8.02;;;;;;;5.06;99.94;99790.91;5034351;28;20028;-71
2022/12/04 07:08:21;;;;;;;19.23;9.85;;;;;;;5.11;100.00;99803.16;5032824;28;20032;-71
2022/12/04 07:10:47;;;;;;;16.50;7.43;;;;;;;5.02;100.00;99783.97;5016949;28;20129;-71
2022/12/04 07:13:12;;;;;;;18.38;9.38;;;;;;;5.14;99.97;99802.25;5016465;28;20113;-71
2022/12/04 07:15:37;;;;;;;24.25;9.85;;;;;;;5.16;100.00;99803.09;5023168;28;20663;-71
2022/12/04 07:18:04;;;;;;;19.67;8.00;;;;;;;5.05;100.00;99797.97;5012962;28;20032;-71
2022/12/04 07:20:30;;;;;;;19.50;8.18;;;;;;;5.15;99.90;99814.53;5013880;28;20053;-71
2022/12/04 07:22:56;;;;;;;18.38;9.10;;;;;;;5.16;100.00;99813.63;5030478;28;20029;-71
2022/12/04 07:25:21;;;;;;;21.90;8.65;;;;;;;5.15;100.00;99807.50;5030290;28;20539;-71
2022/12/04 07:27:47;;;;;;;23.23;10.30;;;;;;;5.08;100.00;99795.28;5018688;28;20054;-71
2022/12/04 07:30:12;;;;;;;22.55;9.25;;;;;;;5.12;100.00;99802.25;5013060;28;20109;-71
2022/12/04 07:32:38;;;;;;;21.83;8.55;;;;;;;5.18;100.00;99807.47;5014639;28;20125;-71
2022/12/04 07:35:04;;;;;;;22.13;8.65;;;;;;;5.15;100.00;99799.59;5014209;28;20026;-71
2022/12/04 07:37:30;;;;;;;19.17;8.73;;;;;;;5.16;100.00;99801.31;5014153;28;20041;-70
2022/12/04 07:39:55;;;;;;;23.42;8.50;;;;;;;5.18;100.00;99804.81;5016706;28;20034;-70
2022/12/04 07:42:21;;;;;;;20.65;8.73;;;;;;;5.09;100.00;99786.47;5024947;28;20021;-71
2022/12/04 07:44:46;;;;;;;22.52;10.15;;;;;;;5.24;99.76;99810.00;5030408;28;20033;-70
2022/12/04 07:47:12;;;;;;;25.83;9.38;;;;;;;5.29;99.98;99808.16;5014009;28;20048;-71
2022/12/04 07:49:37;;;;;;;23.77;8.25;;;;;;;5.30;99.88;99803.75;5017732;28;20045;-71
2022/12/04 07:52:03;;;;;;;19.50;8.77;;;;;;;5.35;99.77;99813.34;5016210;28;20026;-71
2022/12/04 07:54:29;;;;;;;23.73;9.13;;;;;;;5.36;99.89;99812.47;5012514;28;20029;-71
2022/12/04 07:56:54;;;;;;;19.48;8.38;;;;;;;5.39;99.80;99824.72;5015954;28;20030;-71
2022/12/04 07:59:20;;;;;;;23.20;9.02;;;;;;;5.28;99.87;99816.97;5013885;28;20034;-71
2022/12/04 08:01:45;;;;;;;18.33;9.23;;;;;;;5.37;99.60;99822.09;5012591;28;20041;-70
2022/12/04 08:04:11;;;;;;;23.25;9.85;;;;;;;5.39;98.87;99836.13;5027752;28;20444;-70
2022/12/04 08:06:37;;;;;;;21.23;8.10;;;;;;;5.34;99.00;99811.59;5033500;28;20136;-70
2022/12/04 08:09:04;;;;;;;22.83;8.18;;;;;;;5.51;99.35;99823.66;5027662;28;20040;-70
2022/12/04 08:11:30;;;;;;;19.35;8.68;;;;;;;5.48;98.48;99828.97;5012187;28;20028;-71
2022/12/04 08:14:01;;;;;;;22.98;8.93;;;;;;;5.55;98.59;99831.53;5013512;28;20026;-70
2022/12/04 08:16:28;;;;;;;23.15;9.75;;;;;;;5.50;98.96;99812.25;5027574;28;20116;-71
2022/12/04 08:18:54;;;;;;;20.85;9.05;;;;;;;5.61;98.45;99810.31;5033225;28;20021;-71
2022/12/04 08:21:22;;;;;;;22.55;9.30;;;;;;;5.57;98.62;99807.75;5025500;28;20390;-71
2022/12/04 08:23:51;;;;;;;20.55;9.38;;;;;;;5.63;98.39;99818.19;5013214;28;20547;-70
2022/12/04 08:26:17;;;;;;;23.10;9.13;;;;;;;5.64;97.72;99819.94;5013149;28;20060;-71
2022/12/04 08:28:43;;;;;;;17.33;9.88;;;;;;;5.57;97.77;99807.75;5015340;28;20049;-71
2022/12/04 08:31:10;;;;;;;21.90;8.80;;;;;;;5.72;97.53;99825.94;5013405;28;20022;-70
2022/12/04 08:33:36;;;;;;;22.40;9.23;;;;;;;5.57;98.08;99797.19;5020744;28;20025;-70
2022/12/04 08:36:05;;;;;;;21.20;10.25;;;;;;;5.74;97.67;99819.75;5030911;28;20491;-70
2022/12/04 08:38:31;;;;;;;21.35;9.45;;;;;;;5.78;97.34;99818.84;5030736;28;20056;-70
2022/12/04 08:41:00;;;;;;;18.92;10.35;;;;;;;5.81;97.88;99817.91;5013806;28;20462;-70
2022/12/04 08:43:26;;;;;;;21.88;9.93;;;;;;;5.75;97.44;99805.66;5012983;28;20025;-70
2022/12/04 08:46:06;;;;;;;20.08;9.02;;;;;;;5.87;97.44;99828.38;5017061;28;20385;-71
2022/12/04 08:48:33;;;;;;;25.60;11.48;;;;;;;5.93;97.10;99823.84;5013039;28;20034;-70
2022/12/04 08:50:58;;;;;;;20.45;8.70;;;;;;;5.94;96.73;99819.47;5012826;28;20025;-71
2022/12/04 08:53:24;;;;;;;24.45;9.98;;;;;;;5.88;95.89;99819.56;5014812;28;20556;-71
2022/12/04 08:55:50;;;;;;;19.02;9.15;;;;;;;5.94;95.77;99824.75;5012867;28;20041;-70
2022/12/04 08:58:16;;;;;;;24.08;10.00;;;;;;;6.00;95.31;99820.22;5017953;28;20171;-71
2022/12/04 09:00:42;;;;;;;19.90;9.10;;;;;;;5.92;95.10;99816.84;5029810;28;20429;-71
2022/12/04 09:03:12;;;;;;;26.83;12.50;;;;;;;6.00;95.88;99824.63;5025017;28;20024;-70
2022/12/04 09:05:37;;;;;;;32.63;13.20;;;;;;;6.05;96.08;99825.41;5027975;28;20116;-71
2022/12/04 09:08:03;;;;;;;33.47;13.48;;;;;;;6.00;95.83;99808.78;5013041;28;20113;-71
2022/12/04 09:10:28;;;;;;;29.33;11.98;;;;;;;6.10;95.76;99819.16;5027545;28;20041;-71
2022/12/04 09:12:54;;;;;;;22.75;10.23;;;;;;;6.07;96.11;99813.94;5012080;28;20044;-71
2022/12/04 09:15:19;;;;;;;23.08;9.07;;;;;;;6.09;95.69;99813.91;5012116;28;20033;-71
2022/12/04 09:17:45;;;;;;;21.88;9.73;;;;;;;6.04;95.48;99811.38;5014928;28;20108;-71
2022/12/04 09:20:11;;;;;;;24.83;9.52;;;;;;;6.15;95.11;99825.25;5012235;28;20040;-71
2022/12/04 09:22:37;;;;;;;23.30;8.40;;;;;;;6.07;94.85;99813.94;5014291;28;20041;-70
2022/12/04 09:25:04;;;;;;;19.73;9.00;;;;;;;6.18;95.13;99829.56;5012363;28;20041;-71
2022/12/04 09:27:30;;;;;;;20.40;9.55;;;;;;;6.23;94.49;99817.16;5013255;28;20026;-70
2022/12/04 09:29:55;;;;;;;20.40;8.55;;;;;;;6.23;94.55;99822.44;5013098;28;20056;-70
2022/12/04 09:32:21;;;;;;;24.80;9.07;;;;;;;6.16;94.67;99799.72;5010748;28;20022;-71
2022/12/04 09:34:47;;;;;;;24.75;10.48;;;;;;;6.26;95.06;99815.34;5029787;28;20564;-70
2022/12/04 09:37:12;;;;;;;19.88;8.80;;;;;;;6.28;94.43;99812.66;5029214;28;20053;-70
2022/12/04 09:39:38;;;;;;;21.45;10.15;;;;;;;6.29;94.31;99815.28;5031562;28;20064;-70
2022/12/04 09:42:29;;;;;;;22.42;8.95;;;;;;;6.33;94.74;99819.63;5030386;28;20032;-70
2022/12/04 09:45:02;;;;;;;25.85;9.80;;;;;;;6.32;94.59;99811.72;5028005;28;20049;-70
2022/12/04 09:47:33;;;;;;;22.83;8.73;;;;;;;6.36;94.43;99814.28;5030663;28;20056;-71
2022/12/04 09:50:22;;;;;;;20.27;9.57;;;;;;;6.41;94.29;99811.53;5018550;28;20034;-70
2022/12/04 09:53:05;;;;;;;20.25;9.30;;;;;;;6.36;93.88;99798.44;5029885;28;20846;-70
2022/12/04 09:55:50;;;;;;;21.55;9.02;;;;;;;6.44;93.81;99801.78;5029422;28;20025;-70
2022/12/04 09:58:46;;;;;;;21.35;10.57;;;;;;;6.55;94.31;99804.22;5031499;28;20065;-71
2022/12/04 10:01:26;;;;;;;22.58;9.00;;;;;;;6.55;93.30;99805.09;5031468;28;20067;-70
2022/12/04 10:03:53;;;;;;;21.60;8.98;;;;;;;6.52;92.96;99804.28;5028533;28;20045;-70
2022/12/04 10:06:48;;;;;;;20.85;8.80;;;;;;;6.50;92.62;99806.09;5030941;28;20057;-70
2022/12/04 10:09:41;;;;;;;18.75;9.30;;;;;;;6.46;92.75;99799.09;5024168;28;20048;-71
2022/12/04 10:12:22;;;;;;;24.02;9.52;;;;;;;6.43;92.73;99799.19;4992599;28;20042;-70
2022/12/04 10:15:02;;;;;;;22.38;11.02;;;;;;;6.53;92.94;99800.75;5011518;28;20037;-71
2022/12/04 10:18:10;;;;;;;21.70;9.55;;;;;;;6.57;92.71;99798.00;5011522;28;20030;-71
2022/12/04 10:20:57;;;;;;;23.88;8.98;;;;;;;6.67;92.16;99798.72;5011275;28;20033;-70
2022/12/04 10:23:54;;;;;;;22.65;10.02;;;;;;;6.66;92.42;99799.59;5009679;28;20458;-70
2022/12/04 10:26:26;;;;;;;22.50;9.73;;;;;;;6.68;92.00;99803.06;5010258;28;20042;-70
2022/12/04 10:29:01;;;;;;;21.45;9.63;;;;;;;6.69;91.61;99796.88;5024432;28;20167;-70
2022/12/04 10:31:28;;;;;;;19.33;9.60;;;;;;;6.69;91.70;99794.25;5025133;28;20040;-70
2022/12/04 10:34:20;;;;;;;18.77;7.95;;;;;;;6.70;91.46;99786.28;5030029;28;20026;-70
2022/12/04 10:36:50;;;;;;;20.88;9.85;;;;;;;6.75;90.95;99791.50;5024539;28;20558;-70
2022/12/04 10:39:33;;;;;;;22.85;9.85;;;;;;;6.76;90.80;99787.94;5018241;28;20030;-70
2022/12/04 10:42:20;;;;;;;21.93;10.10;;;;;;;6.80;90.91;99794.91;5013939;28;20072;-70
2022/12/04 10:44:46;;;;;;;26.25;10.65;;;;;;;6.69;90.81;99783.66;5010964;28;20026;-70
2022/12/04 10:47:12;;;;;;;21.73;8.35;;;;;;;6.79;91.49;99803.72;5013405;28;20504;-70
2022/12/04 10:49:38;;;;;;;28.25;11.15;;;;;;;6.75;90.44;99803.81;5011126;28;20057;-70
2022/12/04 10:52:05;;;;;;;25.17;10.45;;;;;;;6.78;90.46;99790.53;5014028;28;20061;-71
2022/12/04 10:54:39;;;;;;;24.10;11.25;;;;;;;6.74;90.27;99792.38;5030353;28;20025;-70
2022/12/04 10:57:12;;;;;;;23.50;10.15;;;;;;;6.64;90.73;99778.47;5012655;28;20516;-70
2022/12/04 10:59:47;;;;;;;;;;;;;;;6.74;91.02;99783.59;5014483;28;20087;-70
2022/12/04 11:02:21;;;;;;;22.73;10.32;;;;;;;6.79;90.86;99787.84;5010897;28;20330;-70
2022/12/04 11:04:55;;;;;;;27.42;11.15;;;;;;;6.75;91.18;99778.28;5028536;28;20458;-70
2022/12/04 11:07:25;;;;;;;25.45;10.80;;;;;;;6.88;91.26;99792.97;5024758;28;20080;-70
2022/12/04 11:10:04;;;;;;;22.88;10.00;;;;;;;6.88;90.89;99785.03;5010971;28;20022;-70
2022/12/04 11:12:31;;;;;;;20.60;10.77;;;;;;;6.82;90.98;99794.88;5010830;28;20049;-70
2022/12/04 11:15:06;;;;;;;22.85;10.20;;;;;;;6.81;90.17;99790.47;5012498;28;20029;-67
2022/12/04 11:17:32;;;;;;;24.75;11.43;;;;;;;6.80;90.12;99784.34;5025026;28;20029;-69
2022/12/04 11:20:00;;;;;;;26.20;11.68;;;;;;;6.79;90.20;99781.72;5010818;28;20033;-69
2022/12/04 11:22:26;;;;;;;22.60;10.40;;;;;;;6.72;90.58;99770.41;5010947;28;20057;-68
2022/12/04 11:25:00;;;;;;;23.75;10.93;;;;;;;6.86;90.62;99789.47;5010674;28;20504;-68
2022/12/04 11:27:31;;;;;;;25.55;9.48;;;;;;;6.85;90.97;99798.31;5011478;28;20057;-67
2022/12/04 11:30:01;;;;;;;26.48;10.52;;;;;;;6.81;90.91;99777.25;5010715;28;20477;-68
2022/12/04 11:32:30;;;;;;;19.92;9.68;;;;;;;6.80;90.82;99789.63;5010618;28;20022;-67
2022/12/04 11:35:02;;;;;;;24.35;9.52;;;;;;;6.70;91.07;99778.34;5026279;28;20362;-67
2022/12/04 11:37:32;;;;;;;23.42;9.35;;;;;;;6.85;90.35;99797.44;5024818;28;20039;-68
2022/12/04 11:39:59;;;;;;;23.92;9.88;;;;;;;6.89;90.16;99797.34;5033864;28;20021;-68
2022/12/04 11:42:28;;;;;;;21.92;9.98;;;;;;;6.89;90.80;99793.81;5030852;28;20029;-68
2022/12/04 11:45:01;;;;;;;24.80;11.18;;;;;;;6.89;90.71;99804.38;5030515;28;20025;-68
2022/12/04 11:47:29;;;;;;;19.73;10.75;;;;;;;6.92;91.23;99804.34;5017388;28;20442;-68
2022/12/04 11:50:10;;;;;;;24.40;10.15;;;;;;;6.99;90.74;99803.28;5014047;28;20149;-68
2022/12/04 11:53:20;;;;;;;28.55;11.57;;;;;;;6.94;90.55;99800.75;5013850;28;20022;-67